sensor_id;sensor_type;location;lat;lon;timestamp;pressure;altitude;pressure_sealevel;temperature;humidity
23164;BME280;31429;42.674;23.350;2023-03-04T00:00:04;94802.38;;;6.06;100.00
23164;BME280;31429;42.674;23.350;2023-03-04T00:01:05;94805.75;;;6.07;100.00
23164;BME280;31429;42.674;23.350;2023-03-04T00:02:05;94808.41;;;6.01;100.00
23164;BME280;31429;42.674;23.350;2023-03-04T00:03:06;94806.78;;;5.97;100.00
23164;BME280;31429;42.674;23.350;2023-03-04T00:04:10;94803.34;;;5.99;100.00
23164;BME280;31429;42.674;23.350;2023-03-04T00:05:10;94801.72;;;5.97;100.00
23164;BME280;31429;42.674;23.350;2023-03-04T00:06:11;94803.34;;;5.99;100.00
23164;BME280;31429;42.674;23.350;2023-03-04T00:07:12;94808.53;;;5.95;100.00
23164;BME280;31429;42.674;23.350;2023-03-04T00:08:16;94810.22;;;5.94;100.00
23164;BME280;31429;42.674;23.350;2023-03-04T00:09:16;94806.72;;;6.00;100.00
23164;BME280;31429;42.674;23.350;2023-03-04T00:10:17;94805.94;;;5.98;100.00
23164;BME280;31429;42.674;23.350;2023-03-04T00:11:18;94808.53;;;5.95;100.00
23164;BME280;31429;42.674;23.350;2023-03-04T00:12:18;94804.34;;;5.92;100.00
23164;BME280;31429;42.674;23.350;2023-03-04T00:13:19;94801.94;;;5.86;100.00
23164;BME280;31429;42.674;23.350;2023-03-04T00:14:24;94805.25;;;5.88;100.00
23164;BME280;31429;42.674;23.350;2023-03-04T00:15:24;94798.47;;;5.90;100.00
23164;BME280;31429;42.674;23.350;2023-03-04T00:16:25;94805.13;;;5.96;100.00
23164;BME280;31429;42.674;23.350;2023-03-04T00:17:28;94797.47;;;5.97;100.00
23164;BME280;31429;42.674;23.350;2023-03-04T00:18:30;94798.22;;;6.02;100.00
23164;BME280;31429;42.674;23.350;2023-03-04T00:19:32;94792.41;;;5.97;100.00
23164;BME280;31429;42.674;23.350;2023-03-04T00:20:34;94794.09;;;5.97;100.00
23164;BME280;31429;42.674;23.350;2023-03-04T00:21:37;94799.06;;;6.03;100.00
23164;BME280;31429;42.674;23.350;2023-03-04T00:22:38;94788.06;;;6.02;100.00
23164;BME280;31429;42.674;23.350;2023-03-04T00:23:39;94789.91;;;5.96;100.00
23164;BME280;31429;42.674;23.350;2023-03-04T00:24:40;94789.94;;;5.94;100.00
23164;BME280;31429;42.674;23.350;2023-03-04T00:25:41;94785.69;;;5.93;100.00
23164;BME280;31429;42.674;23.350;2023-03-04T00:26:43;94793.41;;;5.90;100.00
23164;BME280;31429;42.674;23.350;2023-03-04T00:27:45;94790.88;;;5.89;100.00
23164;BME280;31429;42.674;23.350;2023-03-04T00:28:46;94789.94;;;5.94;100.00
23164;BME280;31429;42.674;23.350;2023-03-04T00:29:47;94786.50;;;5.97;100.00
23164;BME280;31429;42.674;23.350;2023-03-04T00:30:47;94789.91;;;5.96;100.00
23164;BME280;31429;42.674;23.350;2023-03-04T00:31:48;94783.16;;;5.95;100.00
23164;BME280;31429;42.674;23.350;2023-03-04T00:32:49;94790.75;;;5.95;100.00
23164;BME280;31429;42.674;23.350;2023-03-04T00:33:49;94784.84;;;6.35;100.00
23164;BME280;31429;42.674;23.350;2023-03-04T00:34:52;94781.91;;;6.15;100.00
23164;BME280;31429;42.674;23.350;2023-03-04T00:35:52;94775.38;;;6.04;100.00
23164;BME280;31429;42.674;23.350;2023-03-04T00:36:53;94780.44;;;6.02;100.00
23164;BME280;31429;42.674;23.350;2023-03-04T00:37:57;94777.28;;;5.93;100.00
23164;BME280;31429;42.674;23.350;2023-03-04T00:38:58;94779.06;;;5.88;100.00
23164;BME280;31429;42.674;23.350;2023-03-04T00:39:58;94778.31;;;5.81;100.00
23164;BME280;31429;42.674;23.350;2023-03-04T00:40:59;94778.25;;;5.84;100.00
23164;BME280;31429;42.674;23.350;2023-03-04T00:41:59;94784.97;;;5.88;100.00
23164;BME280;31429;42.674;23.350;2023-03-04T00:43:01;94784.13;;;5.88;100.00
23164;BME280;31429;42.674;23.350;2023-03-04T00:44:02;94783.31;;;5.86;100.00
23164;BME280;31429;42.674;23.350;2023-03-04T00:45:03;94772.31;;;5.87;100.00
23164;BME280;31429;42.674;23.350;2023-03-04T00:46:04;94782.38;;;5.91;100.00
23164;BME280;31429;42.674;23.350;2023-03-04T00:47:04;94772.28;;;5.90;100.00
23164;BME280;31429;42.674;23.350;2023-03-04T00:48:05;94781.53;;;5.91;100.00
23164;BME280;31429;42.674;23.350;2023-03-04T00:49:06;94784.97;;;5.88;100.00
23164;BME280;31429;42.674;23.350;2023-03-04T00:50:09;94781.50;;;5.92;100.00
23164;BME280;31429;42.674;23.350;2023-03-04T00:51:10;94783.25;;;5.90;100.00
23164;BME280;31429;42.674;23.350;2023-03-04T00:52:11;94775.66;;;5.89;100.00
23164;BME280;31429;42.674;23.350;2023-03-04T00:53:11;94777.34;;;5.90;100.00
23164;BME280;31429;42.674;23.350;2023-03-04T00:54:12;94776.44;;;5.91;100.00
23164;BME280;31429;42.674;23.350;2023-03-04T00:55:13;94779.84;;;5.91;100.00
23164;BME280;31429;42.674;23.350;2023-03-04T00:56:14;94768.88;;;5.89;100.00
23164;BME280;31429;42.674;23.350;2023-03-04T00:57:14;94779.88;;;5.90;100.00
23164;BME280;31429;42.674;23.350;2023-03-04T00:58:15;94775.66;;;5.89;100.00
23164;BME280;31429;42.674;23.350;2023-03-04T00:59:16;94772.28;;;5.88;100.00
23164;BME280;31429;42.674;23.350;2023-03-04T01:00:17;94778.25;;;5.84;100.00
23164;BME280;31429;42.674;23.350;2023-03-04T01:01:18;94774.94;;;5.80;100.00
23164;BME280;31429;42.674;23.350;2023-03-04T01:02:18;94777.44;;;5.82;100.00
23164;BME280;31429;42.674;23.350;2023-03-04T01:03:19;94785.09;;;5.80;100.00
23164;BME280;31429;42.674;23.350;2023-03-04T01:04:20;94780.03;;;5.80;100.00
23164;BME280;31429;42.674;23.350;2023-03-04T01:05:22;94780.81;;;5.84;100.00
23164;BME280;31429;42.674;23.350;2023-03-04T01:06:22;94779.06;;;5.88;100.00
23164;BME280;31429;42.674;23.350;2023-03-04T01:07:23;94781.63;;;5.86;100.00
23164;BME280;31429;42.674;23.350;2023-03-04T01:08:24;94784.97;;;5.88;100.00
23164;BME280;31429;42.674;23.350;2023-03-04T01:09:25;94778.25;;;5.86;100.00
23164;BME280;31429;42.674;23.350;2023-03-04T01:10:26;94784.19;;;5.85;100.00
23164;BME280;31429;42.674;23.350;2023-03-04T01:11:26;94780.81;;;5.82;100.00
23164;BME280;31429;42.674;23.350;2023-03-04T01:12:27;94760.00;;;5.67;100.00
23164;BME280;31429;42.674;23.350;2023-03-04T01:13:28;94785.94;;;5.79;100.00
23164;BME280;31429;42.674;23.350;2023-03-04T01:14:29;94768.22;;;5.78;100.00
23164;BME280;31429;42.674;23.350;2023-03-04T01:15:29;94775.78;;;5.79;100.00
23164;BME280;31429;42.674;23.350;2023-03-04T01:16:30;94766.53;;;5.78;100.00
23164;BME280;31429;42.674;23.350;2023-03-04T01:17:31;94768.22;;;5.78;100.00
23164;BME280;31429;42.674;23.350;2023-03-04T01:18:32;94776.59;;;5.83;100.00
23164;BME280;31429;42.674;23.350;2023-03-04T01:19:33;94767.34;;;5.79;100.00
23164;BME280;31429;42.674;23.350;2023-03-04T01:20:35;94758.97;;;5.75;100.00
23164;BME280;31429;42.674;23.350;2023-03-04T01:21:35;94771.69;;;5.74;100.00
23164;BME280;31429;42.674;23.350;2023-03-04T01:22:36;94767.44;;;5.74;100.00
23164;BME280;31429;42.674;23.350;2023-03-04T01:23:37;94764.97;;;5.73;100.00
23164;BME280;31429;42.674;23.350;2023-03-04T01:24:37;94766.59;;;5.75;100.00
23164;BME280;31429;42.674;23.350;2023-03-04T01:25:38;94759.88;;;5.73;100.00
23164;BME280;31429;42.674;23.350;2023-03-04T01:26:39;94759.81;;;5.76;100.00
23164;BME280;31429;42.674;23.350;2023-03-04T01:27:39;94763.09;;;5.81;100.00
23164;BME280;31429;42.674;23.350;2023-03-04T01:28:40;94762.13;;;5.88;100.00
23164;BME280;31429;42.674;23.350;2023-03-04T01:29:40;94736.22;;;5.72;100.00
23164;BME280;31429;42.674;23.350;2023-03-04T01:30:41;94755.31;;;5.92;100.00
23164;BME280;31429;42.674;23.350;2023-03-04T01:31:42;94759.59;;;5.90;100.00
23164;BME280;31429;42.674;23.350;2023-03-04T01:32:42;94755.31;;;5.92;100.00
23164;BME280;31429;42.674;23.350;2023-03-04T01:33:43;94758.69;;;5.91;100.00
23164;BME280;31429;42.674;23.350;2023-03-04T01:34:44;94756.16;;;5.92;100.00
23164;BME280;31429;42.674;23.350;2023-03-04T01:35:46;94757.84;;;5.92;100.00
23164;BME280;31429;42.674;23.350;2023-03-04T01:36:47;94758.69;;;5.92;100.00
23164;BME280;31429;42.674;23.350;2023-03-04T01:37:48;94750.34;;;5.87;100.00
23164;BME280;31429;42.674;23.350;2023-03-04T01:38:48;94750.34;;;5.86;100.00
23164;BME280;31429;42.674;23.350;2023-03-04T01:39:49;94749.59;;;5.79;100.00
23164;BME280;31429;42.674;23.350;2023-03-04T01:40:50;94757.13;;;5.84;100.00
23164;BME280;31429;42.674;23.350;2023-03-04T01:41:51;94752.91;;;5.84;100.00
23164;BME280;31429;42.674;23.350;2023-03-04T01:42:51;94747.81;;;5.86;100.00
23164;BME280;31429;42.674;23.350;2023-03-04T01:43:54;94743.66;;;5.82;100.00
23164;BME280;31429;42.674;23.350;2023-03-04T01:44:55;94745.31;;;5.82;100.00
23164;BME280;31429;42.674;23.350;2023-03-04T01:45:57;94742.75;;;5.84;100.00
23164;BME280;31429;42.674;23.350;2023-03-04T01:46:58;94743.59;;;5.85;100.00
23164;BME280;31429;42.674;23.350;2023-03-04T01:47:58;94746.97;;;5.84;100.00
23164;BME280;31429;42.674;23.350;2023-03-04T01:48:59;94741.13;;;5.82;100.00
23164;BME280;31429;42.674;23.350;2023-03-04T01:50:02;94744.50;;;5.80;100.00
23164;BME280;31429;42.674;23.350;2023-03-04T01:51:09;94739.38;;;5.84;100.00
23164;BME280;31429;42.674;23.350;2023-03-04T01:52:12;94735.19;;;5.81;100.00
23164;BME280;31429;42.674;23.350;2023-03-04T01:53:17;94738.72;;;5.74;100.00
23164;BME280;31429;42.674;23.350;2023-03-04T01:54:20;94735.47;;;5.67;100.00
23164;BME280;31429;42.674;23.350;2023-03-04T01:55:22;94739.75;;;5.64;100.00
23164;BME280;31429;42.674;23.350;2023-03-04T01:56:24;94736.50;;;5.59;100.00
23164;BME280;31429;42.674;23.350;2023-03-04T01:57:27;94741.63;;;5.56;100.00
23164;BME280;31429;42.674;23.350;2023-03-04T01:58:30;94742.31;;;5.62;100.00
23164;BME280;31429;42.674;23.350;2023-03-04T01:59:31;94739.78;;;5.62;100.00
23164;BME280;31429;42.674;23.350;2023-03-04T02:00:33;94738.13;;;5.60;100.00
23164;BME280;31429;42.674;23.350;2023-03-04T02:01:35;94736.53;;;5.56;100.00
23164;BME280;31429;42.674;23.350;2023-03-04T02:02:36;94743.38;;;5.52;100.00
23164;BME280;31429;42.674;23.350;2023-03-04T02:03:37;94741.78;;;5.45;100.00
23164;BME280;31429;42.674;23.350;2023-03-04T02:04:39;94741.00;;;5.43;100.00
23164;BME280;31429;42.674;23.350;2023-03-04T02:05:44;94737.59;;;5.44;100.00
23164;BME280;31429;42.674;23.350;2023-03-04T02:06:48;94738.50;;;5.42;100.00
23164;BME280;31429;42.674;23.350;2023-03-04T02:07:49;94731.78;;;5.39;100.00
23164;BME280;31429;42.674;23.350;2023-03-04T02:08:50;94740.25;;;5.37;100.00
23164;BME280;31429;42.674;23.350;2023-03-04T02:09:51;94746.22;;;5.34;100.00
23164;BME280;31429;42.674;23.350;2023-03-04T02:10:52;94735.34;;;5.31;100.00
23164;BME280;31429;42.674;23.350;2023-03-04T02:11:53;94737.88;;;5.29;100.00
23164;BME280;31429;42.674;23.350;2023-03-04T02:12:54;94735.34;;;5.31;100.00
23164;BME280;31429;42.674;23.350;2023-03-04T02:13:55;94741.16;;;5.34;100.00
23164;BME280;31429;42.674;23.350;2023-03-04T02:14:56;94731.72;;;5.42;100.00
23164;BME280;31429;42.674;23.350;2023-03-04T02:15:56;94739.34;;;5.41;100.00
23164;BME280;31429;42.674;23.350;2023-03-04T02:16:57;94735.97;;;5.40;100.00
23164;BME280;31429;42.674;23.350;2023-03-04T02:17:58;94738.56;;;5.37;100.00
23164;BME280;31429;42.674;23.350;2023-03-04T02:18:59;94736.88;;;5.38;100.00
23164;BME280;31429;42.674;23.350;2023-03-04T02:20:09;94730.97;;;5.37;100.00
23164;BME280;31429;42.674;23.350;2023-03-04T02:21:18;94726.00;;;5.33;100.00
23164;BME280;31429;42.674;23.350;2023-03-04T02:22:23;94738.63;;;5.36;100.00
23164;BME280;31429;42.674;23.350;2023-03-04T02:23:29;94731.97;;;5.30;100.00
23164;BME280;31429;42.674;23.350;2023-03-04T02:24:35;94736.97;;;5.32;100.00
23164;BME280;31429;42.674;23.350;2023-03-04T02:25:41;94738.56;;;5.37;100.00
23164;BME280;31429;42.674;23.350;2023-03-04T02:26:46;94740.97;;;5.45;100.00
23164;BME280;31429;42.674;23.350;2023-03-04T02:27:46;94730.00;;;5.44;100.00
23164;BME280;31429;42.674;23.350;2023-03-04T02:28:49;94720.03;;;5.35;100.00
23164;BME280;31429;42.674;23.350;2023-03-04T02:29:49;94734.97;;;5.50;100.00
23164;BME280;31429;42.674;23.350;2023-03-04T02:30:50;94734.97;;;5.49;100.00
23164;BME280;31429;42.674;23.350;2023-03-04T02:31:52;94734.19;;;5.45;100.00
23164;BME280;31429;42.674;23.350;2023-03-04T02:32:53;94735.88;;;5.46;100.00
23164;BME280;31429;42.674;23.350;2023-03-04T02:33:56;94727.53;;;5.40;100.00
23164;BME280;31429;42.674;23.350;2023-03-04T02:34:57;94736.03;;;5.37;100.00
23164;BME280;31429;42.674;23.350;2023-03-04T02:35:58;94734.41;;;5.35;100.00
23164;BME280;31429;42.674;23.350;2023-03-04T02:37:00;94729.38;;;5.32;100.00
23164;BME280;31429;42.674;23.350;2023-03-04T02:38:01;94732.84;;;5.28;100.00
23164;BME280;31429;42.674;23.350;2023-03-04T02:39:05;94728.72;;;5.22;100.00
23164;BME280;31429;42.674;23.350;2023-03-04T02:40:09;94732.16;;;5.18;100.00
23164;BME280;31429;42.674;23.350;2023-03-04T02:41:14;94733.00;;;5.17;100.00
23164;BME280;31429;42.674;23.350;2023-03-04T02:42:17;94726.34;;;5.13;100.00
23164;BME280;31429;42.674;23.350;2023-03-04T02:43:18;94727.19;;;5.12;100.00
23164;BME280;31429;42.674;23.350;2023-03-04T02:44:21;94727.25;;;5.10;100.00
23164;BME280;31429;42.674;23.350;2023-03-04T02:45:36;94720.53;;;5.08;100.00
23164;BME280;31429;42.674;23.350;2023-03-04T02:46:37;94724.72;;;5.09;100.00
23164;BME280;31429;42.674;23.350;2023-03-04T02:47:38;94725.59;;;5.08;100.00
23164;BME280;31429;42.674;23.350;2023-03-04T02:48:39;94716.38;;;5.04;100.00
23164;BME280;31429;42.674;23.350;2023-03-04T02:49:40;94723.13;;;5.03;100.00
23164;BME280;31429;42.674;23.350;2023-03-04T02:50:45;94717.25;;;5.01;100.00
23164;BME280;31429;42.674;23.350;2023-03-04T02:51:50;94722.34;;;5.00;100.00
23164;BME280;31429;42.674;23.350;2023-03-04T02:52:51;94717.41;;;4.92;100.00
23164;BME280;31429;42.674;23.350;2023-03-04T02:53:52;94720.84;;;4.88;100.00
23164;BME280;31429;42.674;23.350;2023-03-04T02:54:52;94718.41;;;4.84;100.00
23164;BME280;31429;42.674;23.350;2023-03-04T02:55:53;94715.91;;;4.82;100.00
23164;BME280;31429;42.674;23.350;2023-03-04T02:56:54;94718.44;;;4.82;100.00
23164;BME280;31429;42.674;23.350;2023-03-04T02:57:57;94719.38;;;4.77;100.00
23164;BME280;31429;42.674;23.350;2023-03-04T02:58:57;94718.59;;;4.73;100.00
23164;BME280;31429;42.674;23.350;2023-03-04T02:59:58;94716.91;;;4.72;100.00
23164;BME280;31429;42.674;23.350;2023-03-04T03:00:59;94718.63;;;4.70;100.00
23164;BME280;31429;42.674;23.350;2023-03-04T03:02:00;94717.78;;;4.70;100.00
23164;BME280;31429;42.674;23.350;2023-03-04T03:03:01;94715.34;;;4.63;100.00
23164;BME280;31429;42.674;23.350;2023-03-04T03:04:02;94722.94;;;4.63;100.00
23164;BME280;31429;42.674;23.350;2023-03-04T03:05:03;94721.28;;;4.62;100.00
23164;BME280;31429;42.674;23.350;2023-03-04T03:06:04;94718.78;;;4.61;100.00
23164;BME280;31429;42.674;23.350;2023-03-04T03:07:05;94713.75;;;4.59;100.00
23164;BME280;31429;42.674;23.350;2023-03-04T03:08:06;94718.00;;;4.56;100.00
23164;BME280;31429;42.674;23.350;2023-03-04T03:09:06;94720.56;;;4.54;100.00
23164;BME280;31429;42.674;23.350;2023-03-04T03:10:08;94726.44;;;4.55;100.00
23164;BME280;31429;42.674;23.350;2023-03-04T03:11:09;94727.34;;;4.52;100.00
23164;BME280;31429;42.674;23.350;2023-03-04T03:12:10;94724.00;;;4.49;100.00
23164;BME280;31429;42.674;23.350;2023-03-04T03:13:12;94720.72;;;4.45;100.00
23164;BME280;31429;42.674;23.350;2023-03-04T03:14:12;94731.59;;;4.50;100.00
23164;BME280;31429;42.674;23.350;2023-03-04T03:15:13;94721.47;;;4.50;100.00
23164;BME280;31429;42.674;23.350;2023-03-04T03:16:14;94733.38;;;4.45;100.00
23164;BME280;31429;42.674;23.350;2023-03-04T03:17:14;94726.63;;;4.43;100.00
23164;BME280;31429;42.674;23.350;2023-03-04T03:18:15;94729.97;;;4.46;100.00
23164;BME280;31429;42.674;23.350;2023-03-04T03:19:16;94725.66;;;4.53;100.00
23164;BME280;31429;42.674;23.350;2023-03-04T03:20:17;94724.88;;;4.48;100.00
23164;BME280;31429;42.674;23.350;2023-03-04T03:21:18;94733.41;;;4.41;100.00
23164;BME280;31429;42.674;23.350;2023-03-04T03:22:18;94728.47;;;4.33;100.00
23164;BME280;31429;42.674;23.350;2023-03-04T03:23:19;94731.88;;;4.31;100.00
23164;BME280;31429;42.674;23.350;2023-03-04T03:24:20;94723.47;;;4.29;100.00
23164;BME280;31429;42.674;23.350;2023-03-04T03:25:20;94726.06;;;4.24;100.00
23164;BME280;31429;42.674;23.350;2023-03-04T03:26:21;94727.75;;;4.24;100.00
23164;BME280;31429;42.674;23.350;2023-03-04T03:27:22;94731.19;;;4.21;100.00
23164;BME280;31429;42.674;23.350;2023-03-04T03:28:24;94723.63;;;4.18;100.00
23164;BME280;31429;42.674;23.350;2023-03-04T03:29:24;94700.22;;;4.05;100.00
23164;BME280;31429;42.674;23.350;2023-03-04T03:30:25;94727.88;;;4.16;100.00
23164;BME280;31429;42.674;23.350;2023-03-04T03:31:26;94718.69;;;4.11;100.00
23164;BME280;31429;42.674;23.350;2023-03-04T03:32:26;94722.84;;;4.13;100.00
23164;BME280;31429;42.674;23.350;2023-03-04T03:33:27;94722.91;;;4.10;100.00
23164;BME280;31429;42.674;23.350;2023-03-04T03:34:28;94719.53;;;4.11;100.00
23164;BME280;31429;42.674;23.350;2023-03-04T03:35:28;94717.88;;;4.09;100.00
23164;BME280;31429;42.674;23.350;2023-03-04T03:36:29;94705.31;;;4.02;100.00
23164;BME280;31429;42.674;23.350;2023-03-04T03:37:30;94717.16;;;3.97;100.00
23164;BME280;31429;42.674;23.350;2023-03-04T03:38:30;94713.81;;;3.95;100.00
23164;BME280;31429;42.674;23.350;2023-03-04T03:39:31;94722.28;;;3.94;100.00
23164;BME280;31429;42.674;23.350;2023-03-04T03:40:32;94722.28;;;3.93;100.00
23164;BME280;31429;42.674;23.350;2023-03-04T03:41:32;94722.28;;;3.93;100.00
23164;BME280;31429;42.674;23.350;2023-03-04T03:42:33;94713.94;;;3.88;100.00
23164;BME280;31429;42.674;23.350;2023-03-04T03:43:35;94716.41;;;3.91;100.00
23164;BME280;31429;42.674;23.350;2023-03-04T03:44:35;94718.94;;;3.89;100.00
23164;BME280;31429;42.674;23.350;2023-03-04T03:45:36;94717.31;;;3.87;100.00
23164;BME280;31429;42.674;23.350;2023-03-04T03:46:37;94717.34;;;3.85;100.00
23164;BME280;31429;42.674;23.350;2023-03-04T03:47:37;94710.63;;;3.83;100.00
23164;BME280;31429;42.674;23.350;2023-03-04T03:48:38;94715.69;;;3.81;100.00
23164;BME280;31429;42.674;23.350;2023-03-04T03:49:39;94713.16;;;3.81;100.00
23164;BME280;31429;42.674;23.350;2023-03-04T03:50:39;94708.94;;;3.80;100.00
23164;BME280;31429;42.674;23.350;2023-03-04T03:51:40;94711.50;;;3.79;100.00
23164;BME280;31429;42.674;23.350;2023-03-04T03:52:41;94718.28;;;3.77;100.00
23164;BME280;31429;42.674;23.350;2023-03-04T03:53:41;94709.88;;;3.75;100.00
23164;BME280;31429;42.674;23.350;2023-03-04T03:54:42;94708.22;;;3.74;100.00
23164;BME280;31429;42.674;23.350;2023-03-04T03:55:43;94707.31;;;3.79;100.00
23164;BME280;31429;42.674;23.350;2023-03-04T03:56:43;94709.78;;;3.81;100.00
23164;BME280;31429;42.674;23.350;2023-03-04T03:57:44;94700.59;;;3.75;100.00
23164;BME280;31429;42.674;23.350;2023-03-04T03:58:46;94713.28;;;3.74;100.00
23164;BME280;31429;42.674;23.350;2023-03-04T03:59:47;94700.66;;;3.71;100.00
23164;BME280;31429;42.674;23.350;2023-03-04T04:00:47;94706.53;;;3.73;100.00
23164;BME280;31429;42.674;23.350;2023-03-04T04:01:48;94703.19;;;3.71;100.00
23164;BME280;31429;42.674;23.350;2023-03-04T04:02:49;94700.72;;;3.66;100.00
23164;BME280;31429;42.674;23.350;2023-03-04T04:03:49;94696.50;;;3.67;100.00
23164;BME280;31429;42.674;23.350;2023-03-04T04:04:50;94701.53;;;3.68;100.00
23164;BME280;31429;42.674;23.350;2023-03-04T04:05:51;94699.88;;;3.67;100.00
23164;BME280;31429;42.674;23.350;2023-03-04T04:06:51;94701.50;;;3.70;100.00
23164;BME280;31429;42.674;23.350;2023-03-04T04:07:52;94693.09;;;3.71;100.00
23164;BME280;31429;42.674;23.350;2023-03-04T04:08:53;94697.28;;;3.72;100.00
23164;BME280;31429;42.674;23.350;2023-03-04T04:09:53;94692.28;;;3.69;100.00
23164;BME280;31429;42.674;23.350;2023-03-04T04:10:54;94697.34;;;3.69;100.00
23164;BME280;31429;42.674;23.350;2023-03-04T04:11:55;94699.91;;;3.66;100.00
23164;BME280;31429;42.674;23.350;2023-03-04T04:12:56;94696.50;;;3.67;100.00
23164;BME280;31429;42.674;23.350;2023-03-04T04:13:58;94686.44;;;3.62;100.00
23164;BME280;31429;42.674;23.350;2023-03-04T04:14:58;94701.59;;;3.65;100.00
23164;BME280;31429;42.674;23.350;2023-03-04T04:15:59;94695.66;;;3.66;100.00
23164;BME280;31429;42.674;23.350;2023-03-04T04:17:00;94694.00;;;3.65;100.00
23164;BME280;31429;42.674;23.350;2023-03-04T04:18:01;94692.25;;;3.72;100.00
23164;BME280;31429;42.674;23.350;2023-03-04T04:19:01;94695.53;;;3.75;100.00
23164;BME280;31429;42.674;23.350;2023-03-04T04:20:02;94696.28;;;3.85;100.00
23164;BME280;31429;42.674;23.350;2023-03-04T04:21:03;94691.09;;;3.94;100.00
23164;BME280;31429;42.674;23.350;2023-03-04T04:22:04;94688.59;;;3.91;100.00
23164;BME280;31429;42.674;23.350;2023-03-04T04:23:05;94696.28;;;3.85;100.00
23164;BME280;31429;42.674;23.350;2023-03-04T04:24:06;94690.47;;;3.75;100.00
23164;BME280;31429;42.674;23.350;2023-03-04T04:25:07;94696.41;;;3.73;100.00
23164;BME280;31429;42.674;23.350;2023-03-04T04:26:09;94689.75;;;3.69;100.00
23164;BME280;31429;42.674;23.350;2023-03-04T04:27:10;94695.63;;;3.69;100.00
23164;BME280;31429;42.674;23.350;2023-03-04T04:28:11;94698.19;;;3.66;100.00
23164;BME280;31429;42.674;23.350;2023-03-04T04:29:16;94694.00;;;3.64;100.00
23164;BME280;31429;42.674;23.350;2023-03-04T04:30:17;94694.03;;;3.62;100.00
23164;BME280;31429;42.674;23.350;2023-03-04T04:31:17;94695.66;;;3.66;100.00
23164;BME280;31429;42.674;23.350;2023-03-04T04:32:18;94699.03;;;3.67;100.00
23164;BME280;31429;42.674;23.350;2023-03-04T04:33:19;94693.19;;;3.63;100.00
23164;BME280;31429;42.674;23.350;2023-03-04T04:34:19;94692.34;;;3.61;100.00
23164;BME280;31429;42.674;23.350;2023-03-04T04:35:20;94696.50;;;3.67;100.00
23164;BME280;31429;42.674;23.350;2023-03-04T04:36:20;94702.28;;;3.75;100.00
23164;BME280;31429;42.674;23.350;2023-03-04T04:37:21;94696.31;;;3.82;100.00
23164;BME280;31429;42.674;23.350;2023-03-04T04:38:22;94695.38;;;3.87;100.00
23164;BME280;31429;42.674;23.350;2023-03-04T04:39:24;94692.81;;;3.89;100.00
23164;BME280;31429;42.674;23.350;2023-03-04T04:40:24;94700.28;;;3.98;100.00
23164;BME280;31429;42.674;23.350;2023-03-04T04:41:27;94696.88;;;4.00;100.00
23164;BME280;31429;42.674;23.350;2023-03-04T04:42:29;94690.25;;;3.93;100.00
23164;BME280;31429;42.674;23.350;2023-03-04T04:43:29;94689.53;;;3.84;100.00
23164;BME280;31429;42.674;23.350;2023-03-04T04:44:31;94701.41;;;3.79;100.00
23164;BME280;31429;42.674;23.350;2023-03-04T04:45:33;94684.63;;;3.73;100.00
23164;BME280;31429;42.674;23.350;2023-03-04T04:46:34;94692.28;;;3.69;100.00
23164;BME280;31429;42.674;23.350;2023-03-04T04:47:35;94699.84;;;3.69;100.00
23164;BME280;31429;42.674;23.350;2023-03-04T04:48:35;94693.94;;;3.70;100.00
23164;BME280;31429;42.674;23.350;2023-03-04T04:49:36;94698.97;;;3.71;100.00
23164;BME280;31429;42.674;23.350;2023-03-04T04:50:36;94700.75;;;3.65;100.00
23164;BME280;31429;42.674;23.350;2023-03-04T04:51:38;94703.31;;;3.62;100.00
23164;BME280;31429;42.674;23.350;2023-03-04T04:52:39;94689.06;;;3.56;100.00
23164;BME280;31429;42.674;23.350;2023-03-04T04:53:39;94694.13;;;3.55;100.00
23164;BME280;31429;42.674;23.350;2023-03-04T04:54:40;94696.69;;;3.52;100.00
23164;BME280;31429;42.674;23.350;2023-03-04T04:55:41;94700.09;;;3.47;100.00
23164;BME280;31429;42.674;23.350;2023-03-04T04:56:41;94695.06;;;3.47;100.00
23164;BME280;31429;42.674;23.350;2023-03-04T04:57:42;94701.78;;;3.48;100.00
23164;BME280;31429;42.674;23.350;2023-03-04T04:58:43;94700.09;;;3.49;100.00
23164;BME280;31429;42.674;23.350;2023-03-04T04:59:45;94699.22;;;3.50;100.00
23164;BME280;31429;42.674;23.350;2023-03-04T05:00:46;94701.72;;;3.53;100.00
23164;BME280;31429;42.674;23.350;2023-03-04T05:01:46;94703.38;;;3.57;100.00
23164;BME280;31429;42.674;23.350;2023-03-04T05:02:47;94704.19;;;3.59;100.00
23164;BME280;31429;42.674;23.350;2023-03-04T05:03:48;94712.63;;;3.57;100.00
23164;BME280;31429;42.674;23.350;2023-03-04T05:04:49;94709.19;;;3.61;100.00
23164;BME280;31429;42.674;23.350;2023-03-04T05:05:50;94710.91;;;3.59;100.00
23164;BME280;31429;42.674;23.350;2023-03-04T05:06:51;94712.63;;;3.55;100.00
23164;BME280;31429;42.674;23.350;2023-03-04T05:07:51;94708.44;;;3.56;100.00
23164;BME280;31429;42.674;23.350;2023-03-04T05:08:52;94710.13;;;3.55;100.00
23164;BME280;31429;42.674;23.350;2023-03-04T05:09:53;94715.13;;;3.58;100.00
23164;BME280;31429;42.674;23.350;2023-03-04T05:10:53;94721.84;;;3.61;100.00
23164;BME280;31429;42.674;23.350;2023-03-04T05:11:54;94723.53;;;3.62;100.00
23164;BME280;31429;42.674;23.350;2023-03-04T05:12:54;94723.47;;;3.66;100.00
23164;BME280;31429;42.674;23.350;2023-03-04T05:13:55;94722.66;;;3.66;100.00
23164;BME280;31429;42.674;23.350;2023-03-04T05:14:57;94722.59;;;3.67;100.00
23164;BME280;31429;42.674;23.350;2023-03-04T05:15:58;94724.28;;;3.67;100.00
23164;BME280;31429;42.674;23.350;2023-03-04T05:16:59;94722.56;;;3.70;100.00
23164;BME280;31429;42.674;23.350;2023-03-04T05:17:59;94725.03;;;3.75;100.00
23164;BME280;31429;42.674;23.350;2023-03-04T05:19:00;94726.72;;;3.77;100.00
23164;BME280;31429;42.674;23.350;2023-03-04T05:20:00;94718.25;;;3.78;100.00